Time;durP1;ratioP1;P1;durP2;ratioP2;P2;SDS_P1;SDS_P2;PMS_P1;PMS_P2;Temp;Humidity;BMP_temperature;BMP_pressure;BME280_temperature;BME280_humidity;BME280_pressure;Samples;Min_cycle;Max_cycle;Signal;HPM_P1;HPM_P2
2023/05/14 00:00:46;;;;;;;;;;;;;;;16.25;47.36;100288.19;5091653;28;20028;-42
2023/05/14 00:03:12;;;;;;;;;;;;;;;16.10;48.11;100286.72;5091510;28;20346;-42
2023/05/14 00:05:37;;;;;;;;;;;;;;;15.93;48.41;100288.41;5091203;28;19973;-42
2023/05/14 00:08:02;;;;;;;;;;;;;;;15.90;47.58;100288.88;5091440;28;19919;-42
2023/05/14 00:10:28;;;;;;;;;;;;;;;15.36;49.67;100292.06;5091634;28;19912;-42
2023/05/14 00:12:53;;;;;;;;;;;;;;;15.56;49.38;100291.06;5091498;28;20010;-42
2023/05/14 00:15:18;;;;;;;;;;;;;;;15.27;49.90;100284.53;5091072;28;19912;-42
2023/05/14 00:17:44;;;;;;;;;;;;;;;15.15;50.21;100279.09;5091347;28;19920;-42
2023/05/14 00:20:11;;;;;;;;;;;;;;;15.22;49.80;100286.03;5091294;28;19912;-42
2023/05/14 00:22:36;;;;;;;;;;;;;;;15.29;50.07;100285.97;5091611;28;19965;-42
2023/05/14 00:25:02;;;;;;;;;;;;;;;15.33;49.81;100286.34;5091080;28;20439;-42
2023/05/14 00:27:27;;;;;;;;;;;;;;;15.59;49.10;100277.19;5090901;28;20003;-42
2023/05/14 00:29:52;;;;;;;;;;;;;;;15.56;50.02;100266.94;5090872;28;20346;-42
2023/05/14 00:32:17;;;;;;;;;;;;;;;15.72;48.99;100281.59;5090926;28;19919;-42
2023/05/14 00:34:43;;;;;;;;;;;;;;;15.60;49.44;100276.97;5090989;28;19916;-42
2023/05/14 00:37:08;;;;;;;;;;;;;;;15.71;49.73;100285.34;5090901;28;19966;-42
2023/05/14 00:39:33;;;;;;;;;;;;;;;15.82;49.90;100290.81;5090755;28;19912;-42
2023/05/14 00:41:59;;;;;;;;;;;;;;;15.89;49.45;100282.66;5091067;28;19963;-42
2023/05/14 00:44:24;;;;;;;;;;;;;;;16.05;48.55;100283.09;5090769;28;19912;-42
2023/05/14 00:46:49;;;;;;;;;;;;;;;16.18;49.03;100280.22;5090928;28;19920;-41
2023/05/14 00:49:15;;;;;;;;;;;;;;;16.17;49.01;100267.84;5090788;28;19915;-42
2023/05/14 00:51:41;;;;;;;;;;;;;;;16.33;48.74;100258.34;5090816;28;19916;-42
2023/05/14 00:54:06;;;;;;;;;;;;;;;16.36;48.25;100247.16;5090527;28;19912;-42
2023/05/14 00:56:32;;;;;;;;;;;;;;;16.22;48.95;100251.88;5091085;28;19941;-42
2023/05/14 00:58:58;;;;;;;;;;;;;;;16.09;49.06;100244.84;5090612;28;19918;-42
2023/05/14 01:01:23;;;;;;;;;;;;;;;16.11;49.62;100239.25;5090937;28;19912;-42
2023/05/14 01:03:48;;;;;;;;;;;;;;;15.68;50.07;100248.22;5090732;28;20295;-42
2023/05/14 01:06:16;;;;;;;;;;;;;;;15.74;49.60;100247.34;5090298;28;19952;-42
2023/05/14 01:08:45;;;;;;;;;;;;;;;15.52;50.21;100242.41;5090736;28;20393;-42
2023/05/14 01:11:18;;;;;;;;;;;;;;;15.66;50.37;100247.63;5090941;28;19916;-42
2023/05/14 01:13:48;;;;;;;;;;;;;;;15.78;49.46;100240.47;5090523;28;20058;-42
2023/05/14 01:16:16;;;;;;;;;;;;;;;15.94;49.34;100228.31;5090391;28;19920;-41
2023/05/14 01:18:42;;;;;;;;;;;;;;;16.07;49.30;100224.63;5090466;28;19912;-42
2023/05/14 01:21:26;;;;;;;;;;;;;;;15.92;48.88;100227.72;5090697;28;19924;-42
2023/05/14 01:23:51;;;;;;;;;;;;;;;15.71;49.43;100229.81;5090356;28;19973;-42
2023/05/14 01:26:17;;;;;;;;;;;;;;;15.23;51.04;100227.84;5090270;28;20046;-42
2023/05/14 01:28:42;;;;;;;;;;;;;;;15.34;50.94;100234.34;5090692;28;20307;-42
2023/05/14 01:31:15;;;;;;;;;;;;;;;15.36;50.39;100234.94;5090626;28;19912;-42
2023/05/14 01:33:41;;;;;;;;;;;;;;;15.75;49.51;100238.25;5090426;28;19912;-42
2023/05/14 01:36:06;;;;;;;;;;;;;;;15.82;49.98;100234.44;5090542;28;19912;-42
2023/05/14 01:38:33;;;;;;;;;;;;;;;15.94;49.67;100234.50;5090381;28;20394;-42
2023/05/14 01:40:59;;;;;;;;;;;;;;;15.52;50.82;100223.63;5091883;28;20427;-42
2023/05/14 01:43:24;;;;;;;;;;;;;;;15.21;51.06;100227.25;5094265;28;19958;-42
2023/05/14 01:45:50;;;;;;;;;;;;;;;14.96;51.60;100224.63;5094251;28;19935;-42
2023/05/14 01:48:15;;;;;;;;;;;;;;;14.81;52.09;100220.44;5094273;28;19919;-42
2023/05/14 01:50:40;;;;;;;;;;;;;;;14.59;52.48;100219.19;5094195;28;19998;-42
2023/05/14 01:53:06;;;;;;;;;;;;;;;14.48;52.88;100218.00;5094130;28;20358;-42
2023/05/14 01:55:31;;;;;;;;;;;;;;;14.54;52.84;100218.97;5094155;28;20026;-42
2023/05/14 01:57:56;;;;;;;;;;;;;;;14.53;52.61;100220.84;5093954;28;19919;-41
2023/05/14 02:00:22;;;;;;;;;;;;;;;14.94;51.27;100216.00;5093953;28;19912;-41
2023/05/14 02:02:48;;;;;;;;;;;;;;;14.55;52.30;100212.59;5093857;28;20310;-42
2023/05/14 02:05:13;;;;;;;;;;;;;;;14.63;52.15;100209.66;5092376;28;19912;-42
2023/05/14 02:07:38;;;;;;;;;;;;;;;14.25;53.04;100207.84;5093938;28;19916;-42
2023/05/14 02:10:04;;;;;;;;;;;;;;;14.55;52.51;100213.41;5093542;28;19912;-42
2023/05/14 02:12:29;;;;;;;;;;;;;;;14.53;52.31;100220.84;5093813;28;20399;-42
2023/05/14 02:14:55;;;;;;;;;;;;;;;14.26;52.45;100225.56;5093624;28;19912;-42
2023/05/14 02:17:20;;;;;;;;;;;;;;;14.26;52.48;100225.56;5094309;28;20370;-42
2023/05/14 02:19:46;;;;;;;;;;;;;;;14.18;52.42;100234.66;5093336;28;19919;-42
2023/05/14 02:22:11;;;;;;;;;;;;;;;14.16;53.00;100220.66;5093583;28;19995;-42
2023/05/14 02:24:37;;;;;;;;;;;;;;;14.22;52.90;100225.19;5093314;28;20754;-42
2023/05/14 02:27:02;;;;;;;;;;;;;;;14.70;51.51;100226.50;5093554;28;19928;-42
2023/05/14 02:29:27;;;;;;;;;;;;;;;14.78;51.12;100231.59;5093591;28;19927;-42
2023/05/14 02:31:53;;;;;;;;;;;;;;;14.88;51.42;100230.28;5093322;28;19921;-42
2023/05/14 02:34:18;;;;;;;;;;;;;;;14.64;51.46;100227.38;5093125;28;20233;-42
2023/05/14 02:36:43;;;;;;;;;;;;;;;14.84;51.52;100221.84;5093264;28;19912;-42
2023/05/14 02:39:09;;;;;;;;;;;;;;;14.87;51.95;100218.75;5093506;28;19918;-42
2023/05/14 02:41:34;;;;;;;;;;;;;;;14.77;51.90;100221.09;5093361;28;19912;-42
2023/05/14 02:44:00;;;;;;;;;;;;;;;14.92;51.49;100218.88;5092924;28;20380;-42
2023/05/14 02:46:25;;;;;;;;;;;;;;;15.05;50.83;100213.41;5093235;28;19924;-42
2023/05/14 02:48:50;;;;;;;;;;;;;;;15.22;51.48;100219.00;5093128;28;19922;-42
2023/05/14 02:51:16;;;;;;;;;;;;;;;15.25;51.07;100231.97;5092885;28;20368;-42
2023/05/14 02:53:41;;;;;;;;;;;;;;;15.03;50.60;100246.84;5092767;28;19911;-42
2023/05/14 02:56:07;;;;;;;;;;;;;;;15.34;50.99;100247.75;5092879;28;19912;-42
2023/05/14 02:58:32;;;;;;;;;;;;;;;15.28;50.36;100270.09;5093063;28;19912;-42
2023/05/14 03:00:57;;;;;;;;;;;;;;;15.31;50.01;100261.63;5092788;28;20459;-42
2023/05/14 03:03:23;;;;;;;;;;;;;;;15.34;50.00;100269.22;5092873;28;19912;-42
2023/05/14 03:05:48;;;;;;;;;;;;;;;14.69;52.73;100264.22;5092917;28;20233;-41
2023/05/14 03:08:13;;;;;;;;;;;;;;;15.01;51.27;100270.34;5092569;28;19912;-42
2023/05/14 03:10:39;;;;;;;;;;;;;;;15.15;50.75;100282.59;5092943;28;19918;-42
2023/05/14 03:13:04;;;;;;;;;;;;;;;15.17;50.53;100280.53;5092645;28;20246;-42
2023/05/14 03:15:30;;;;;;;;;;;;;;;15.04;51.19;100284.16;5092557;28;20014;-42
2023/05/14 03:17:55;;;;;;;;;;;;;;;14.65;52.36;100271.88;5092480;28;20296;-42
2023/05/14 03:20:21;;;;;;;;;;;;;;;14.85;52.39;100269.88;5092235;28;19923;-42
2023/05/14 03:22:47;;;;;;;;;;;;;;;14.92;52.54;100272.47;5092432;28;19912;-42
2023/05/14 03:25:12;;;;;;;;;;;;;;;14.52;53.04;100275.44;5092373;28;19919;-42
2023/05/14 03:27:37;;;;;;;;;;;;;;;14.58;53.24;100271.94;5092257;28;20045;-42
2023/05/14 03:30:03;;;;;;;;;;;;;;;14.89;52.55;100269.41;5092391;28;20354;-42
2023/05/14 03:32:29;;;;;;;;;;;;;;;14.41;53.56;100268.94;5092295;28;19926;-42
2023/05/14 03:34:54;;;;;;;;;;;;;;;13.83;55.11;100280.53;5092356;28;19919;-42
2023/05/14 03:37:19;;;;;;;;;;;;;;;14.04;54.56;100279.41;5092597;28;19919;-42
2023/05/14 03:39:45;;;;;;;;;;;;;;;13.44;55.92;100284.97;5091771;28;19959;-42
2023/05/14 03:42:10;;;;;;;;;;;;;;;13.78;55.59;100282.19;5091714;28;19916;-42
2023/05/14 03:44:35;;;;;;;;;;;;;;;14.37;54.74;100290.97;5091996;28;19912;-47
2023/05/14 03:47:00;;;;;;;;;;;;;;;14.49;54.17;100294.63;5091641;28;19920;-42
2023/05/14 03:49:26;;;;;;;;;;;;;;;14.74;52.73;100301.91;5091892;28;19912;-42
2023/05/14 03:51:51;;;;;;;;;;;;;;;14.77;52.96;100299.59;5091813;28;20022;-41
2023/05/14 03:54:16;;;;;;;;;;;;;;;15.16;52.12;100300.31;5091519;28;19912;-42
2023/05/14 03:56:41;;;;;;;;;;;;;;;15.10;52.44;100301.22;5091750;28;20011;-42
2023/05/14 03:59:07;;;;;;;;;;;;;;;15.07;52.58;100296.28;5091864;28;19912;-42
2023/05/14 04:01:32;;;;;;;;;;;;;;;14.80;53.46;100291.13;5091532;28;20003;-42
2023/05/14 04:03:57;;;;;;;;;;;;;;;14.60;54.25;100291.28;5091189;28;19918;-41
2023/05/14 04:06:23;;;;;;;;;;;;;;;14.47;55.12;100292.16;5091586;28;20324;-42
2023/05/14 04:08:48;;;;;;;;;;;;;;;14.32;55.34;100297.00;5091682;28;19912;-42
2023/05/14 04:11:13;;;;;;;;;;;;;;;14.38;56.18;100287.28;5091536;28;20291;-42
2023/05/14 04:13:38;;;;;;;;;;;;;;;14.70;54.29;100296.16;5091606;28;19962;-41
2023/05/14 04:16:04;;;;;;;;;;;;;;;14.83;54.22;100295.22;5091499;28;19923;-42
2023/05/14 04:18:33;;;;;;;;;;;;;;;14.58;54.75;100295.19;5091452;28;19915;-42
2023/05/14 04:20:59;;;;;;;;;;;;;;;14.83;54.70;100293.38;5091585;28;19912;-42
2023/05/14 04:23:24;;;;;;;;;;;;;;;15.03;54.29;100303.13;5091426;28;19916;-42
2023/05/14 04:25:49;;;;;;;;;;;;;;;15.02;54.58;100301.47;5091376;28;19920;-42
2023/05/14 04:28:15;;;;;;;;;;;;;;;14.54;55.52;100291.28;5090256;28;20019;-42
2023/05/14 04:30:40;;;;;;;;;;;;;;;14.46;56.30;100285.16;5090388;28;19918;-42
2023/05/14 04:33:05;;;;;;;;;;;;;;;14.28;56.65;100285.06;5090894;28;19942;-42
2023/05/14 04:35:31;;;;;;;;;;;;;;;14.35;57.19;100293.03;5090315;28;20325;-42
2023/05/14 04:37:56;;;;;;;;;;;;;;;14.70;56.72;100290.81;5090100;28;19912;-42
2023/05/14 04:40:21;;;;;;;;;;;;;;;15.18;55.31;100294.75;5090370;28;19913;-42
2023/05/14 04:42:47;;;;;;;;;;;;;;;14.95;55.18;100306.06;5090496;28;19999;-42
2023/05/14 04:45:12;;;;;;;;;;;;;;;15.27;54.92;100312.19;5090220;28;20407;-42
2023/05/14 04:47:37;;;;;;;;;;;;;;;15.24;55.23;100334.88;5090267;28;19955;-42
2023/05/14 04:50:03;;;;;;;;;;;;;;;15.57;54.40;100330.25;5090093;28;20343;-42
2023/05/14 04:52:28;;;;;;;;;;;;;;;15.51;54.81;100321.22;5090081;28;19961;-41
2023/05/14 04:54:54;;;;;;;;;;;;;;;15.04;56.33;100323.50;5090119;28;19919;-42
2023/05/14 04:57:19;;;;;;;;;;;;;;;14.78;57.36;100311.97;5090103;28;19912;-42
2023/05/14 04:59:45;;;;;;;;;;;;;;;15.25;56.19;100287.47;5090405;28;20014;-42
2023/05/14 05:02:10;;;;;;;;;;;;;;;15.57;56.01;100290.00;5089284;28;20444;-42
2023/05/14 05:04:35;;;;;;;;;;;;;;;15.45;56.64;100292.63;5088514;28;20376;-42
2023/05/14 05:07:01;;;;;;;;;;;;;;;15.81;55.45;100291.84;5089755;28;19920;-42
2023/05/14 05:09:26;;;;;;;;;;;;;;;16.07;55.84;100299.78;5089965;28;19912;-42
2023/05/14 05:11:51;;;;;;;;;;;;;;;15.96;54.58;100320.16;5090035;28;19912;-42
2023/05/14 05:14:17;;;;;;;;;;;;;;;16.09;54.90;100317.31;5089473;28;19934;-42
2023/05/14 05:16:42;;;;;;;;;;;;;;;16.30;54.41;100316.00;5088784;28;19912;-42
2023/05/14 05:19:07;;;;;;;;;;;;;;;16.46;54.16;100303.00;5090088;28;20036;-42
2023/05/14 05:21:33;;;;;;;;;;;;;;;16.38;54.06;100298.75;5089651;28;19912;-42
2023/05/14 05:23:58;;;;;;;;;;;;;;;16.42;53.86;100303.44;5089927;28;20371;-42
2023/05/14 05:26:25;;;;;;;;;;;;;;;16.21;54.76;100320.06;5021833;28;1906554;-42
2023/05/14 05:28:51;;;;;;;;;;;;;;;16.38;54.92;100313.00;5090276;28;20411;-42
2023/05/14 05:31:16;;;;;;;;;;;;;;;15.90;55.42;100331.81;5090262;28;19912;-42
2023/05/14 05:33:41;;;;;;;;;;;;;;;16.06;55.76;100327.69;5090833;28;19917;-42
2023/05/14 05:36:07;;;;;;;;;;;;;;;16.35;54.25;100324.19;5090362;28;20333;-42
2023/05/14 05:38:32;;;;;;;;;;;;;;;16.61;54.39;100322.19;5090659;28;19922;-42
2023/05/14 05:40:58;;;;;;;;;;;;;;;16.54;54.40;100327.66;5090658;28;20072;-42
2023/05/14 05:43:23;;;;;;;;;;;;;;;16.57;53.82;100337.13;5090423;28;19912;-42
2023/05/14 05:45:48;;;;;;;;;;;;;;;16.72;54.29;100347.47;5090352;28;19923;-42
2023/05/14 05:48:14;;;;;;;;;;;;;;;16.77;53.26;100342.22;5088099;28;19912;-41
2023/05/14 05:50:40;;;;;;;;;;;;;;;17.00;52.97;100336.09;5082216;28;19935;-47
2023/05/14 05:53:05;;;;;;;;;;;;;;;17.09;53.32;100331.19;5076319;28;19943;-47
2023/05/14 05:55:30;;;;;;;;;;;;;;;17.08;52.02;100335.78;5069968;28;20316;-46
2023/05/14 05:57:56;;;;;;;;;;;;;;;16.84;52.69;100344.84;5069365;28;19912;-47
2023/05/14 06:00:22;;;;;;;;;;;;;;;16.67;53.44;100355.38;5069142;28;19917;-47
2023/05/14 06:02:47;;;;;;;;;;;;;;;17.12;51.67;100363.03;5069890;28;20316;-41
2023/05/14 06:05:13;;;;;;;;;;;;;;;17.16;50.01;100366.88;5075349;28;19912;-41
2023/05/14 06:07:38;;;;;;;;;;;;;;;17.40;49.19;100373.06;5090183;28;19916;-41
2023/05/14 06:10:03;;;;;;;;;;;;;;;17.21;49.56;100377.78;5089911;28;19919;-40
2023/05/14 06:12:29;;;;;;;;;;;;;;;17.29;49.74;100382.00;5090176;28;19964;-43
2023/05/14 06:14:56;;;;;;;;;;;;;;;17.34;49.85;100374.84;5088637;28;20387;-41
2023/05/14 06:17:21;;;;;;;;;;;;;;;17.56;48.85;100385.84;5088364;28;20324;-42
2023/05/14 06:19:47;;;;;;;;;;;;;;;17.75;48.57;100385.72;5088856;28;19970;-42
2023/05/14 06:22:13;;;;;;;;;;;;;;;17.78;48.57;100386.09;5088592;28;19920;-42
2023/05/14 06:24:39;;;;;;;;;;;;;;;17.95;48.02;100390.75;5088236;28;20249;-40
2023/05/14 06:27:04;;;;;;;;;;;;;;;17.50;49.53;100394.84;5089441;28;19938;-42
2023/05/14 06:29:29;;;;;;;;;;;;;;;17.83;48.46;100398.00;5093328;28;19966;-43
2023/05/14 06:31:56;;;;;;;;;;;;;;;18.04;47.93;100402.00;5093393;28;20304;-42
2023/05/14 06:34:21;;;;;;;;;;;;;;;17.85;48.21;100398.63;5093315;28;20428;-40
2023/05/14 06:36:46;;;;;;;;;;;;;;;18.03;47.77;100405.72;5093064;28;19912;-43
2023/05/14 06:39:12;;;;;;;;;;;;;;;18.04;47.76;100418.97;5093163;28;20057;-41
2023/05/14 06:41:37;;;;;;;;;;;;;;;18.16;47.87;100424.34;5093551;28;19912;-41
2023/05/14 06:44:02;;;;;;;;;;;;;;;18.25;48.10;100431.00;5093232;28;20007;-41
2023/05/14 06:46:27;;;;;;;;;;;;;;;18.41;49.16;100444.78;5093025;28;20489;-43
2023/05/14 06:48:53;;;;;;;;;;;;;;;18.48;50.44;100459.75;5092865;28;20165;-42
2023/05/14 06:51:18;;;;;;;;;;;;;;;18.47;50.74;100463.53;5093129;28;20493;-41
2023/05/14 06:53:43;;;;;;;;;;;;;;;18.30;51.86;100457.25;5093197;28;19926;-43
2023/05/14 06:56:09;;;;;;;;;;;;;;;18.19;53.24;100458.88;5093229;28;19912;-42
2023/05/14 06:58:34;;;;;;;;;;;;;;;17.92;53.59;100464.75;5092994;28;19918;-43
2023/05/14 07:00:59;;;;;;;;;;;;;;;18.04;53.89;100459.38;5093058;28;19919;-42
2023/05/14 07:03:25;;;;;;;;;;;;;;;18.12;55.16;100463.56;5093279;28;19935;-44
2023/05/14 07:05:50;;;;;;;;;;;;;;;18.17;54.51;100455.63;5092886;28;20014;-43
2023/05/14 07:08:16;;;;;;;;;;;;;;;18.12;55.58;100459.00;5093117;28;19912;-42
2023/05/14 07:10:41;;;;;;;;;;;;;;;17.91;56.64;100459.59;5093133;28;20040;-46
2023/05/14 07:13:07;;;;;;;;;;;;;;;17.87;57.37;100444.97;5092849;28;19982;-44
2023/05/14 07:15:32;;;;;;;;;;;;;;;17.83;56.52;100436.50;5092777;28;19949;-45
2023/05/14 07:17:57;;;;;;;;;;;;;;;17.89;54.80;100435.59;5093151;28;19916;-43
2023/05/14 07:20:23;;;;;;;;;;;;;;;17.98;54.17;100441.47;5092871;28;19920;-44
2023/05/14 07:22:48;;;;;;;;;;;;;;;17.98;55.98;100436.88;5093287;28;19912;-44
2023/05/14 07:25:14;;;;;;;;;;;;;;;18.06;54.37;100437.59;5092789;28;19912;-43
2023/05/14 07:27:39;;;;;;;;;;;;;;;18.07;53.40;100433.84;5092491;28;19924;-43
2023/05/14 07:30:06;;;;;;;;;;;;;;;18.03;53.66;100427.28;5092742;28;19912;-42
2023/05/14 07:32:31;;;;;;;;;;;;;;;18.02;55.17;100422.97;5092423;28;20014;-43
2023/05/14 07:34:56;;;;;;;;;;;;;;;17.81;58.74;100417.09;5092540;28;20402;-43
2023/05/14 07:37:21;;;;;;;;;;;;;;;17.40;56.70;100405.38;5091949;28;19916;-45
2023/05/14 07:39:47;;;;;;;;;;;;;;;17.23;56.34;100404.41;5091589;28;19920;-42
2023/05/14 07:42:12;;;;;;;;;;;;;;;17.18;59.68;100405.91;5092505;28;19919;-45
2023/05/14 07:44:37;;;;;;;;;;;;;;;17.10;60.47;100405.47;5092198;28;20375;-42
2023/05/14 07:47:03;;;;;;;;;;;;;;;16.96;60.42;100426.31;5092025;28;19951;-47
2023/05/14 07:49:28;;;;;;;;;;;;;;;17.18;57.59;100424.75;5092112;28;20379;-46
2023/05/14 07:51:53;;;;;;;;;;;;;;;17.35;57.62;100430.28;5092369;28;20349;-44
2023/05/14 07:54:19;;;;;;;;;;;;;;;17.63;57.76;100436.03;5091932;28;19919;-44
2023/05/14 07:56:44;;;;;;;;;;;;;;;17.59;56.86;100431.13;5091441;28;19943;-44
2023/05/14 07:59:09;;;;;;;;;;;;;;;17.53;57.44;100436.63;5091713;28;19912;-43
2023/05/14 08:01:35;;;;;;;;;;;;;;;17.43;58.82;100429.13;5091794;28;19912;-47
2023/05/14 08:04:00;;;;;;;;;;;;;;;17.10;60.26;100419.72;5091598;28;19962;-42
2023/05/14 08:06:26;;;;;;;;;;;;;;;16.90;59.90;100419.19;5091599;28;20391;-44
2023/05/14 08:08:51;;;;;;;;;;;;;;;16.35;63.29;100414.69;5091604;28;19923;-42
2023/05/14 08:11:17;;;;;;;;;;;;;;;16.20;63.78;100417.75;5091891;28;20011;-43
2023/05/14 08:13:42;;;;;;;;;;;;;;;16.26;63.78;100429.47;5091659;28;20243;-46
2023/05/14 08:16:07;;;;;;;;;;;;;;;16.68;62.53;100430.41;5091403;28;19912;-44
2023/05/14 08:18:33;;;;;;;;;;;;;;;16.83;64.28;100446.16;5091291;28;19919;-44
2023/05/14 08:20:58;;;;;;;;;;;;;;;16.89;66.13;100456.00;5091154;28;19919;-43
2023/05/14 08:23:23;;;;;;;;;;;;;;;16.64;66.20;100466.00;5091337;28;19969;-44
2023/05/14 08:25:48;;;;;;;;;;;;;;;16.99;64.78;100471.56;5091483;28;19916;-44
2023/05/14 08:28:14;;;;;;;;;;;;;;;17.10;65.61;100486.13;5091307;28;20007;-44
2023/05/14 08:30:39;;;;;;;;;;;;;;;17.30;64.47;100491.19;5090957;28;19919;-44
2023/05/14 08:33:05;;;;;;;;;;;;;;;17.48;64.21;100493.81;5091107;28;19995;-44
2023/05/14 08:35:30;;;;;;;;;;;;;;;17.62;63.51;100499.81;5091129;28;19916;-44
2023/05/14 08:37:55;;;;;;;;;;;;;;;17.61;63.21;100510.81;5091060;28;20009;-44
2023/05/14 08:40:21;;;;;;;;;;;;;;;17.61;63.14;100511.66;5091075;28;19973;-43
2023/05/14 08:42:47;;;;;;;;;;;;;;;17.73;62.61;100500.91;5091101;28;19912;-43
2023/05/14 08:45:16;;;;;;;;;;;;;;;17.67;60.19;100491.88;5090954;28;20068;-45
2023/05/14 08:47:44;;;;;;;;;;;;;;;17.76;59.55;100500.41;5090615;28;19920;-44
2023/05/14 08:50:09;;;;;;;;;;;;;;;17.55;60.51;100499.09;5090616;28;20023;-44
2023/05/14 08:52:35;;;;;;;;;;;;;;;17.58;60.68;100510.22;5090729;28;19977;-43
2023/05/14 08:55:03;;;;;;;;;;;;;;;17.35;60.33;100507.47;5090616;28;19912;-43
2023/05/14 08:57:30;;;;;;;;;;;;;;;17.18;63.10;100510.81;5090571;28;19922;-43
2023/05/14 08:59:56;;;;;;;;;;;;;;;16.93;63.62;100508.25;5090944;28;19912;-43
2023/05/14 09:02:27;;;;;;;;;;;;;;;16.29;67.30;100501.53;5090313;28;20470;-44
2023/05/14 09:04:56;;;;;;;;;;;;;;;16.70;66.26;100487.44;5090575;28;20316;-45
2023/05/14 09:07:22;;;;;;;;;;;;;;;16.94;64.91;100480.31;5090662;28;19967;-43
2023/05/14 09:09:48;;;;;;;;;;;;;;;17.18;63.63;100465.09;5090789;28;19912;-44
2023/05/14 09:12:13;;;;;;;;;;;;;;;17.06;63.35;100472.31;5090892;28;19952;-43
2023/05/14 09:14:38;;;;;;;;;;;;;;;17.10;63.62;100480.75;5090646;28;20032;-43
2023/05/14 09:17:04;;;;;;;;;;;;;;;17.13;64.11;100474.88;5090401;28;19912;-44
2023/05/14 09:19:29;;;;;;;;;;;;;;;17.26;62.17;100476.56;5090510;28;19912;-44
2023/05/14 09:21:56;;;;;;;;;;;;;;;17.24;61.61;100478.69;5090391;28;20415;-44
2023/05/14 09:24:22;;;;;;;;;;;;;;;17.27;60.41;100473.66;5090431;28;19959;-45
2023/05/14 09:26:55;;;;;;;;;;;;;;;17.17;60.19;100478.75;5089940;28;20388;-43
2023/05/14 09:29:20;;;;;;;;;;;;;;;17.18;61.26;100472.34;5090495;28;19923;-43
2023/05/14 09:31:46;;;;;;;;;;;;;;;17.24;62.38;100471.41;5089030;28;19912;-44
2023/05/14 09:34:22;;;;;;;;;;;;;;;17.33;61.99;100466.53;5090424;28;19924;-43
2023/05/14 09:36:47;;;;;;;;;;;;;;;17.23;61.59;100474.34;5090413;28;19912;-46
2023/05/14 09:39:12;;;;;;;;;;;;;;;17.14;60.80;100471.16;5090746;28;20233;-43
2023/05/14 09:41:37;;;;;;;;;;;;;;;17.22;61.61;100452.00;5090433;28;20385;-43
2023/05/14 09:44:03;;;;;;;;;;;;;;;16.99;62.78;100467.00;5090349;28;19912;-45
2023/05/14 09:46:30;;;;;;;;;;;;;;;17.09;63.21;100458.38;5090148;28;20291;-44
2023/05/14 09:48:55;;;;;;;;;;;;;;;16.90;64.18;100444.19;5090471;28;19912;-42
2023/05/14 09:51:21;;;;;;;;;;;;;;;16.66;64.33;100429.81;5090138;28;20031;-44
2023/05/14 09:53:47;;;;;;;;;;;;;;;16.45;64.16;100428.44;5090087;28;19916;-44
2023/05/14 09:56:12;;;;;;;;;;;;;;;16.45;64.02;100424.91;5090190;28;19916;-43
2023/05/14 09:58:37;;;;;;;;;;;;;;;16.42;64.05;100423.50;5090121;28;19938;-44
2023/05/14 10:01:03;;;;;;;;;;;;;;;16.84;64.15;100420.09;5090076;28;20398;-44
2023/05/14 10:03:29;;;;;;;;;;;;;;;16.99;63.53;100415.13;5094086;28;19935;-45
2023/05/14 10:05:57;;;;;;;;;;;;;;;16.74;63.30;100413.38;5094144;28;19917;-43
2023/05/14 10:08:26;;;;;;;;;;;;;;;16.83;63.47;100410.38;5094023;28;19968;-43
2023/05/14 10:10:52;;;;;;;;;;;;;;;16.38;66.41;100422.31;5094286;28;19919;-42
2023/05/14 10:13:19;;;;;;;;;;;;;;;16.48;66.09;100430.66;5093885;28;19912;-43
2023/05/14 10:15:51;;;;;;;;;;;;;;;16.71;66.32;100419.19;5093844;28;19950;-43
2023/05/14 10:18:18;;;;;;;;;;;;;;;17.19;64.89;100409.41;5093408;28;19961;-42
2023/05/14 10:20:44;;;;;;;;;;;;;;;17.36;63.30;100415.78;5093868;28;19981;-43
2023/05/14 10:23:10;;;;;;;;;;;;;;;17.45;62.52;100423.50;5093767;28;19912;-43
2023/05/14 10:25:36;;;;;;;;;;;;;;;17.39;61.97;100422.56;5093525;28;19922;-43
2023/05/14 10:28:02;;;;;;;;;;;;;;;16.99;63.25;100431.25;5093379;28;19924;-44
2023/05/14 10:30:27;;;;;;;;;;;;;;;17.08;63.62;100423.69;5093340;28;19946;-41
2023/05/14 10:33:05;;;;;;;;;;;;;;;17.26;62.90;100426.28;5093640;28;19982;-44
2023/05/14 10:35:49;;;;;;;;;;;;;;;17.24;64.09;100424.88;5093613;28;19912;-46
2023/05/14 10:38:15;;;;;;;;;;;;;;;17.37;63.50;100413.91;5093102;28;19916;-43
2023/05/14 10:40:40;;;;;;;;;;;;;;;17.54;61.79;100416.75;5093432;28;19978;-42
2023/05/14 10:43:07;;;;;;;;;;;;;;;17.75;61.36;100408.06;5093075;28;20023;-43
2023/05/14 10:45:33;;;;;;;;;;;;;;;17.99;61.93;100394.63;5093213;28;19951;-45
2023/05/14 10:47:58;;;;;;;;;;;;;;;17.65;61.50;100390.88;5093227;28;19956;-42
2023/05/14 10:50:25;;;;;;;;;;;;;;;17.82;60.86;100378.34;5093174;28;20491;-44
2023/05/14 10:52:51;;;;;;;;;;;;;;;17.91;61.32;100374.25;5093245;28;19948;-43
2023/05/14 10:55:16;;;;;;;;;;;;;;;17.85;61.41;100380.59;5093275;28;20313;-44
2023/05/14 10:57:43;;;;;;;;;;;;;;;18.19;60.49;100372.69;5093257;28;19939;-43
2023/05/14 11:00:09;;;;;;;;;;;;;;;18.15;60.94;100372.34;5093093;28;19970;-42
2023/05/14 11:02:42;;;;;;;;;;;;;;;18.15;59.33;100364.25;5092890;28;19916;-42
2023/05/14 11:05:10;;;;;;;;;;;;;;;18.59;58.34;100371.84;5092689;28;20380;-42
2023/05/14 11:07:39;;;;;;;;;;;;;;;18.79;58.23;100359.78;5092835;28;19982;-41
2023/05/14 11:10:08;;;;;;;;;;;;;;;18.96;59.52;100376.84;5092755;28;19912;-42
2023/05/14 11:12:34;;;;;;;;;;;;;;;18.52;59.29;100365.78;5092818;28;19921;-42
2023/05/14 11:15:00;;;;;;;;;;;;;;;18.70;58.28;100362.88;5092747;28;19919;-42
2023/05/14 11:17:26;;;;;;;;;;;;;;;18.72;58.22;100355.38;5092837;28;19912;-43
2023/05/14 11:19:52;;;;;;;;;;;;;;;19.03;57.58;100349.72;5092838;28;19985;-42
2023/05/14 11:22:17;;;;;;;;;;;;;;;19.17;58.22;100347.50;5092739;28;19934;-42
2023/05/14 11:24:43;;;;;;;;;;;;;;;19.43;58.40;100349.53;5092489;28;19916;-42
2023/05/14 11:27:09;;;;;;;;;;;;;;;18.70;61.13;100354.81;5091942;28;19920;-42
2023/05/14 11:29:35;;;;;;;;;;;;;;;19.04;60.36;100349.47;5092731;28;19920;-42
2023/05/14 11:32:01;;;;;;;;;;;;;;;18.35;60.98;100349.56;5092297;28;20305;-42
2023/05/14 11:34:26;;;;;;;;;;;;;;;18.20;61.64;100352.78;5092236;28;19938;-42
2023/05/14 11:36:52;;;;;;;;;;;;;;;18.62;59.62;100340.88;5092038;28;20045;-41
2023/05/14 11:39:18;;;;;;;;;;;;;;;18.99;58.20;100337.78;5092383;28;20404;-41
2023/05/14 11:41:44;;;;;;;;;;;;;;;18.90;58.31;100350.84;5092295;28;19912;-41
2023/05/14 11:44:09;;;;;;;;;;;;;;;18.41;60.41;100355.84;5091753;28;19962;-41
2023/05/14 11:46:35;;;;;;;;;;;;;;;18.05;60.50;100361.38;5092361;28;19955;-41
2023/05/14 11:49:02;;;;;;;;;;;;;;;18.09;60.96;100362.53;5092061;28;19958;-40
2023/05/14 11:51:28;;;;;;;;;;;;;;;18.20;61.11;100351.94;5091959;28;19915;-40
2023/05/14 11:53:53;;;;;;;;;;;;;;;18.53;59.64;100345.88;5092055;28;19912;-40
2023/05/14 11:56:20;;;;;;;;;;;;;;;18.78;58.86;100360.88;5092201;28;19912;-40
2023/05/14 11:58:48;;;;;;;;;;;;;;;18.72;58.16;100357.25;5091707;28;19919;-42
2023/05/14 12:01:14;;;;;;;;;;;;;;;18.78;59.19;100350.09;5091694;28;19919;-41
2023/05/14 12:03:40;;;;;;;;;;;;;;;18.98;58.68;100355.84;5091713;28;19912;-40
2023/05/14 12:06:09;;;;;;;;;;;;;;;18.65;58.86;100357.41;5091809;28;20384;-42
2023/05/14 12:08:36;;;;;;;;;;;;;;;18.65;59.14;100361.97;5091701;28;19994;-41
2023/05/14 12:11:01;;;;;;;;;;;;;;;18.41;58.69;100367.47;5091940;28;19912;-41
2023/05/14 12:13:27;;;;;;;;;;;;;;;18.09;60.67;100361.72;5091669;28;20304;-42
2023/05/14 12:15:54;;;;;;;;;;;;;;;18.54;59.89;100352.88;5091381;28;20010;-41
2023/05/14 12:18:19;;;;;;;;;;;;;;;18.89;57.47;100341.13;5091410;28;19912;-41
2023/05/14 12:20:48;;;;;;;;;;;;;;;18.94;58.79;100336.66;5091629;28;19923;-41
2023/05/14 12:23:14;;;;;;;;;;;;;;;18.78;58.69;100337.41;5091345;28;19912;-41
2023/05/14 12:25:39;;;;;;;;;;;;;;;18.50;59.62;100332.88;5090502;28;20001;-41
2023/05/14 12:28:14;;;;;;;;;;;;;;;17.86;61.03;100325.72;5090955;28;20372;-41